createdAt,value
2019-06-26T00:01:09.759Z,100246.45
2019-06-26T00:03:37.290Z,100248.05
2019-06-26T00:06:04.920Z,100258.30
2019-06-26T00:08:32.795Z,100258.30
2019-06-26T00:11:00.568Z,100254.75
2019-06-26T00:13:28.233Z,100257.36
2019-06-26T00:15:55.987Z,100259.27
2019-06-26T00:18:23.911Z,100265.11
2019-06-26T00:20:51.624Z,100263.23
2019-06-26T00:23:19.271Z,100267.02
2019-06-26T00:25:46.843Z,100276.56
2019-06-26T00:28:14.907Z,100276.56
2019-06-26T00:30:42.671Z,100278.23
2019-06-26T00:33:10.333Z,100275.81
2019-06-26T00:35:38.005Z,100284.00
2019-06-26T00:38:05.825Z,100286.72
2019-06-26T00:40:33.844Z,100295.95
2019-06-26T00:43:01.802Z,100295.95
2019-06-26T00:45:29.363Z,100286.92
2019-06-26T00:47:57.229Z,100287.66
2019-06-26T00:50:24.996Z,100291.44
2019-06-26T00:52:52.650Z,100296.03
2019-06-26T00:55:20.213Z,100294.05
2019-06-26T00:57:48.143Z,100307.87
2019-06-26T01:00:15.698Z,100307.87
2019-06-26T01:02:43.533Z,100309.55
2019-06-26T01:05:12.060Z,100309.55
2019-06-26T01:07:39.928Z,100316.44
2019-06-26T01:10:08.135Z,100318.84
2019-06-26T01:12:36.069Z,100317.04
2019-06-26T01:15:04.075Z,100323.12
2019-06-26T01:17:32.554Z,100323.12
2019-06-26T01:20:00.496Z,100323.79
2019-06-26T01:22:28.184Z,100319.09
2019-06-26T01:24:55.969Z,100319.09
2019-06-26T01:27:23.948Z,100321.01
2019-06-26T01:29:51.580Z,100321.01
2019-06-26T01:32:19.245Z,100320.53
2019-06-26T01:34:46.852Z,100324.42
2019-06-26T01:37:14.617Z,100321.93
2019-06-26T01:39:42.240Z,100325.63
2019-06-26T01:42:09.890Z,100322.16
2019-06-26T01:44:37.848Z,100322.36
2019-06-26T01:47:05.932Z,100322.78
2019-06-26T01:49:33.706Z,100325.79
2019-06-26T01:52:01.490Z,100324.73
2019-06-26T01:54:29.332Z,100328.48
2019-06-26T01:56:57.195Z,100330.34
2019-06-26T01:59:24.701Z,100329.06
2019-06-26T02:01:52.306Z,100333.77
2019-06-26T02:04:20.059Z,100334.51
2019-06-26T02:06:47.844Z,100337.66
2019-06-26T02:09:15.510Z,100338.90
2019-06-26T02:11:43.270Z,100340.97
2019-06-26T02:14:10.877Z,100337.30
2019-06-26T02:16:38.717Z,100337.06
2019-06-26T02:19:07.658Z,100345.14
2019-06-26T02:21:35.343Z,100340.94
2019-06-26T02:24:03.294Z,100346.14
2019-06-26T02:26:30.964Z,100347.07
2019-06-26T02:28:58.653Z,100343.59
2019-06-26T02:31:26.318Z,100343.66
2019-06-26T02:33:54.464Z,100349.53
2019-06-26T02:36:22.599Z,100346.53
2019-06-26T02:38:50.177Z,100342.54
2019-06-26T02:41:17.976Z,100345.94
2019-06-26T02:43:45.748Z,100345.94
2019-06-26T02:46:13.517Z,100350.44
2019-06-26T02:48:41.592Z,100353.83
2019-06-26T02:51:09.314Z,100353.83
2019-06-26T02:53:37.109Z,100361.88
2019-06-26T02:56:04.985Z,100365.32
2019-06-26T02:58:33.159Z,100362.91
2019-06-26T03:01:00.893Z,100367.53
2019-06-26T03:03:28.625Z,100363.96
2019-06-26T03:05:56.407Z,100366.55
2019-06-26T03:08:24.516Z,100366.55
2019-06-26T03:10:52.182Z,100370.64
2019-06-26T03:13:19.942Z,100370.32
2019-06-26T03:15:50.518Z,100365.98
2019-06-26T03:18:17.251Z,100365.98
2019-06-26T03:20:44.887Z,100372.47
2019-06-26T03:23:12.748Z,100369.43
2019-06-26T03:25:40.424Z,100369.43
2019-06-26T03:28:08.378Z,100370.47
2019-06-26T03:30:36.038Z,100376.02
2019-06-26T03:33:04.221Z,100378.92
2019-06-26T03:35:31.927Z,100378.92
2019-06-26T03:37:59.925Z,100383.20
2019-06-26T03:40:27.717Z,100388.31
2019-06-26T03:42:55.480Z,100388.31
2019-06-26T03:45:26.078Z,100397.21
2019-06-26T03:47:52.840Z,100404.02
2019-06-26T03:50:20.855Z,100404.02
2019-06-26T03:52:48.476Z,100417.30
2019-06-26T03:55:16.171Z,100417.30
2019-06-26T03:57:43.795Z,100417.63
2019-06-26T04:00:11.431Z,100419.30
2019-06-26T04:02:39.421Z,100421.30
2019-06-26T04:05:07.314Z,100419.22
2019-06-26T04:07:34.948Z,100419.88
2019-06-26T04:10:02.607Z,100417.61
2019-06-26T04:12:30.267Z,100426.23
2019-06-26T04:14:57.935Z,100416.48
2019-06-26T04:17:25.550Z,100424.27
2019-06-26T04:19:53.624Z,100429.49
2019-06-26T04:22:21.516Z,100435.73
2019-06-26T04:24:49.047Z,100435.73
2019-06-26T04:27:16.571Z,100432.29
2019-06-26T04:29:45.454Z,100433.42
2019-06-26T04:32:13.202Z,100437.33
2019-06-26T04:34:40.898Z,100434.73
2019-06-26T04:37:08.726Z,100434.73
2019-06-26T04:39:36.577Z,100440.63
2019-06-26T04:42:04.173Z,100443.33
2019-06-26T04:44:32.124Z,100443.33
2019-06-26T04:47:00.179Z,100445.61
2019-06-26T04:49:27.877Z,100449.00
2019-06-26T04:51:55.690Z,100450.86
2019-06-26T04:54:23.156Z,100440.97
2019-06-26T04:56:50.697Z,100455.06
2019-06-26T04:59:18.455Z,100450.07
2019-06-26T05:01:46.057Z,100455.45
2019-06-26T05:04:13.541Z,100455.45
2019-06-26T05:06:41.510Z,100458.23
2019-06-26T05:09:09.099Z,100456.27
2019-06-26T05:11:36.730Z,100458.72
2019-06-26T05:14:04.500Z,100458.88
2019-06-26T05:16:32.169Z,100458.88
2019-06-26T05:18:59.867Z,100463.13
2019-06-26T05:21:27.621Z,100464.28
2019-06-26T05:23:55.167Z,100458.93
2019-06-26T05:26:22.822Z,100463.87
2019-06-26T05:28:50.821Z,100463.35
2019-06-26T05:31:18.450Z,100470.72
2019-06-26T05:33:46.085Z,100470.28
2019-06-26T05:36:13.948Z,100470.19
2019-06-26T05:38:41.563Z,100476.08
2019-06-26T05:41:09.167Z,100476.50
2019-06-26T05:43:36.798Z,100470.50
2019-06-26T05:46:04.397Z,100480.70
2019-06-26T05:48:32.306Z,100480.70
2019-06-26T05:50:59.939Z,100481.31
2019-06-26T05:53:27.476Z,100481.31
2019-06-26T05:55:56.350Z,100483.39
2019-06-26T05:58:23.846Z,100483.39
2019-06-26T06:00:51.467Z,100496.94
2019-06-26T06:03:19.329Z,100498.72
2019-06-26T06:05:47.249Z,100495.02
2019-06-26T06:08:14.942Z,100497.45
2019-06-26T06:10:42.713Z,100504.70
2019-06-26T06:13:10.414Z,100504.70
2019-06-26T06:15:37.966Z,100503.84
2019-06-26T06:18:05.769Z,100504.30
2019-06-26T06:20:33.256Z,100503.95
2019-06-26T06:23:00.881Z,100512.03
2019-06-26T06:25:28.784Z,100503.27
2019-06-26T06:27:56.466Z,100511.23
2019-06-26T06:30:23.943Z,100510.37
2019-06-26T06:32:51.890Z,100510.37
2019-06-26T06:35:19.441Z,100508.19
2019-06-26T06:37:47.038Z,100508.19
2019-06-26T06:40:14.786Z,100514.06
2019-06-26T06:42:42.375Z,100517.19
2019-06-26T06:45:09.959Z,100520.84
2019-06-26T06:47:37.763Z,100519.22
2019-06-26T06:50:05.312Z,100521.08
2019-06-26T06:52:32.794Z,100523.95
2019-06-26T06:55:00.625Z,100524.87
2019-06-26T06:57:28.198Z,100524.87
2019-06-26T06:59:56.134Z,100527.83
2019-06-26T07:02:25.082Z,100526.00
2019-06-26T07:04:52.760Z,100531.33
2019-06-26T07:07:20.301Z,100530.91
2019-06-26T07:09:48.057Z,100532.88
2019-06-26T07:12:15.602Z,100528.16
2019-06-26T07:14:43.452Z,100528.16
2019-06-26T07:17:20.763Z,100530.02
2019-06-26T07:19:40.518Z,100539.64
2019-06-26T07:22:08.177Z,100542.11
2019-06-26T07:24:35.987Z,100542.11
2019-06-26T07:27:03.599Z,100541.44
2019-06-26T07:29:31.179Z,100542.55
2019-06-26T07:31:59.067Z,100542.17
2019-06-26T07:34:26.648Z,100556.83
2019-06-26T07:36:54.525Z,100548.13
2019-06-26T07:39:22.352Z,100563.52
2019-06-26T07:41:49.842Z,100562.79
2019-06-26T07:44:17.412Z,100565.38
2019-06-26T07:46:45.251Z,100564.60
2019-06-26T07:49:12.882Z,100565.84
2019-06-26T07:51:40.365Z,100566.09
2019-06-26T07:54:08.132Z,100571.20
2019-06-26T07:56:35.736Z,100571.20
2019-06-26T07:59:03.284Z,100573.48
2019-06-26T08:01:31.093Z,100576.09
2019-06-26T08:03:58.712Z,100573.27
2019-06-26T08:06:26.260Z,100570.67
2019-06-26T08:08:54.228Z,100574.73
2019-06-26T08:11:21.930Z,100575.28
2019-06-26T08:13:49.496Z,100572.97
2019-06-26T08:16:17.359Z,100578.92
2019-06-26T08:18:44.848Z,100578.92
2019-06-26T08:21:13.173Z,100570.91
2019-06-26T08:23:41.182Z,100574.23
2019-06-26T08:26:09.074Z,100579.71
2019-06-26T08:28:36.771Z,100584.02
2019-06-26T08:31:09.074Z,100585.66
2019-06-26T08:33:36.567Z,100598.16
2019-06-26T08:36:04.124Z,100598.16
2019-06-26T08:38:31.944Z,100594.14
2019-06-26T08:40:59.647Z,100594.14
2019-06-26T08:43:31.054Z,100587.84
2019-06-26T08:45:56.455Z,100592.26
2019-06-26T08:48:38.936Z,100591.02
2019-06-26T08:50:53.628Z,100596.84
2019-06-26T08:53:21.170Z,100595.64
2019-06-26T08:55:48.788Z,100595.22
2019-06-26T08:58:16.655Z,100596.01
2019-06-26T09:00:44.243Z,100593.16
2019-06-26T09:03:12.119Z,100593.84
2019-06-26T09:05:47.994Z,100593.84
2019-06-26T09:08:12.710Z,100597.48
2019-06-26T09:10:44.690Z,100596.39
2019-06-26T09:13:10.306Z,100603.41
2019-06-26T09:15:37.878Z,100601.59
2019-06-26T09:18:05.524Z,100598.23
2019-06-26T09:20:33.390Z,100606.20
2019-06-26T09:23:01.014Z,100604.53
2019-06-26T09:25:28.521Z,100601.92
2019-06-26T09:27:56.431Z,100602.63
2019-06-26T09:30:24.175Z,100607.08
2019-06-26T09:32:51.849Z,100607.08
2019-06-26T09:35:19.682Z,100609.83
2019-06-26T09:37:47.458Z,100610.96
2019-06-26T09:40:15.118Z,100612.06
2019-06-26T09:42:44.061Z,100614.65
2019-06-26T09:45:11.612Z,100611.56
2019-06-26T09:47:39.170Z,100615.30
2019-06-26T09:50:07.038Z,100615.30
2019-06-26T09:52:34.516Z,100620.78
2019-06-26T09:55:02.227Z,100621.83
2019-06-26T09:57:30.134Z,100618.44
2019-06-26T09:59:57.694Z,100616.55
2019-06-26T10:02:25.551Z,100612.95
2019-06-26T10:04:53.368Z,100612.95
2019-06-26T10:07:20.870Z,100609.36
2019-06-26T10:09:48.487Z,100605.09
2019-06-26T10:12:16.264Z,100605.09
2019-06-26T10:14:47.883Z,100595.55
2019-06-26T10:17:13.076Z,100597.19
2019-06-26T10:19:40.883Z,100593.02
2019-06-26T10:22:23.745Z,100588.75
2019-06-26T10:24:51.803Z,100588.75
2019-06-26T10:27:19.326Z,100590.45
2019-06-26T10:29:46.877Z,100590.45
2019-06-26T10:32:14.727Z,100591.48
2019-06-26T10:34:42.330Z,100590.45
2019-06-26T10:37:09.902Z,100599.66
2019-06-26T10:39:37.793Z,100601.05
2019-06-26T10:42:05.341Z,100600.52
2019-06-26T10:44:32.964Z,100604.94
2019-06-26T10:52:30.453Z,100601.70
2019-06-26T10:54:58.006Z,100601.80
2019-06-26T10:57:25.646Z,100607.82
2019-06-26T10:59:55.873Z,100608.59
2019-06-26T11:02:25.837Z,100603.61
2019-06-26T11:04:53.458Z,100601.32
2019-06-26T11:07:23.778Z,100608.97
2019-06-26T11:09:51.433Z,100611.64
2019-06-26T11:12:19.072Z,100600.64
2019-06-26T11:14:46.882Z,100603.95
2019-06-26T11:17:14.583Z,100597.33
2019-06-26T11:19:44.175Z,100596.53
2019-06-26T11:22:11.773Z,100601.70
2019-06-26T11:30:09.585Z,100607.98
2019-06-26T11:32:37.462Z,100603.37
2019-06-26T11:35:05.017Z,100610.40
2019-06-26T11:37:32.626Z,100604.92
2019-06-26T11:40:00.449Z,100609.58
2019-06-26T11:42:27.920Z,100614.23
2019-06-26T11:44:55.524Z,100609.00
2019-06-26T11:47:23.101Z,100604.78
2019-06-26T11:49:59.839Z,100613.49
2019-06-26T11:52:20.144Z,100609.33
2019-06-26T11:55:01.341Z,100607.61
2019-06-26T11:57:17.299Z,100602.22
2019-06-26T11:59:46.173Z,100602.22
2019-06-26T12:02:13.841Z,100601.69
2019-06-26T12:04:41.402Z,100597.95
2019-06-26T12:07:09.325Z,100602.00
2019-06-26T12:09:36.932Z,100605.70
2019-06-26T12:12:05.560Z,100605.38
2019-06-26T12:14:33.307Z,100605.16
2019-06-26T12:17:00.853Z,100606.45
2019-06-26T12:19:28.397Z,100606.48
2019-06-26T12:21:56.269Z,100603.27
2019-06-26T12:24:26.481Z,100603.27
2019-06-26T12:26:53.107Z,100608.32
2019-06-26T12:29:20.917Z,100609.65
2019-06-26T12:31:48.541Z,100599.84
2019-06-26T12:34:16.197Z,100593.03
2019-06-26T12:36:44.061Z,100593.03
2019-06-26T12:39:11.606Z,100600.91
2019-06-26T12:41:39.572Z,100602.77
2019-06-26T12:44:07.456Z,100604.13
2019-06-26T12:46:35.447Z,100605.58
2019-06-26T12:51:48.474Z,100603.67
2019-06-26T12:54:16.108Z,100600.88
2019-06-26T12:56:44.001Z,100602.89
2019-06-26T12:59:12.268Z,100599.48
2019-06-26T13:01:39.854Z,100607.59
2019-06-26T13:04:07.440Z,100606.42
2019-06-26T13:06:35.337Z,100605.53
2019-06-26T13:09:02.907Z,100609.59
2019-06-26T13:11:30.720Z,100610.80
2019-06-26T13:14:03.068Z,100602.48
2019-06-26T13:16:27.762Z,100606.50
2019-06-26T13:18:55.431Z,100608.75
2019-06-26T13:21:24.294Z,100603.83
2019-06-26T13:23:51.833Z,100603.83
2019-06-26T13:26:19.444Z,100613.58
2019-06-26T13:28:47.274Z,100610.03
2019-06-26T13:31:14.841Z,100612.18
2019-06-26T13:33:42.528Z,100604.80
2019-06-26T13:36:10.383Z,100613.36
2019-06-26T13:38:37.998Z,100608.45
2019-06-26T13:41:05.555Z,100608.45
2019-06-26T13:43:33.753Z,100603.45
2019-06-26T13:46:01.368Z,100609.05
2019-06-26T13:48:29.057Z,100603.39
2019-06-26T13:51:08.984Z,100604.84
2019-06-26T13:53:26.151Z,100607.55
2019-06-26T13:55:53.755Z,100604.55
2019-06-26T13:58:21.669Z,100605.28
2019-06-26T14:00:49.374Z,100604.05
2019-06-26T14:03:16.874Z,100601.13
2019-06-26T14:05:45.007Z,100603.94
2019-06-26T14:08:13.109Z,100600.64
2019-06-26T14:10:40.646Z,100594.44
2019-06-26T14:13:08.551Z,100601.39
2019-06-26T14:15:36.111Z,100599.29
2019-06-26T14:18:03.713Z,100600.66
2019-06-26T14:20:31.650Z,100603.74
2019-06-26T14:22:59.246Z,100605.45
2019-06-26T14:25:26.739Z,100601.81
2019-06-26T14:27:54.713Z,100600.42
2019-06-26T14:30:22.281Z,100606.33
2019-06-26T14:32:49.887Z,100608.69
2019-06-26T14:35:17.636Z,100605.66
2019-06-26T14:37:45.618Z,100600.09
2019-06-26T14:40:13.219Z,100598.64
2019-06-26T14:42:41.035Z,100598.34
2019-06-26T14:45:08.592Z,100600.94
2019-06-26T14:47:36.365Z,100606.98
2019-06-26T14:50:04.337Z,100604.28
2019-06-26T14:52:34.854Z,100603.89
2019-06-26T14:55:01.122Z,100597.59
2019-06-26T14:57:29.272Z,100594.78
2019-06-26T14:59:56.874Z,100599.05
2019-06-26T15:02:24.439Z,100604.91
2019-06-26T15:04:52.307Z,100596.47
2019-06-26T15:07:19.814Z,100600.27
2019-06-26T15:09:47.606Z,100597.12
2019-06-26T15:12:17.377Z,100595.72
2019-06-26T15:14:44.946Z,100599.64
2019-06-26T15:17:12.725Z,100588.58
2019-06-26T15:19:40.380Z,100589.03
2019-06-26T15:22:08.035Z,100586.63
2019-06-26T15:24:36.086Z,100580.17
2019-06-26T15:27:03.792Z,100583.14
2019-06-26T15:29:31.479Z,100583.23
2019-06-26T15:31:59.363Z,100579.59
2019-06-26T15:34:26.967Z,100573.22
2019-06-26T15:36:54.603Z,100575.89
2019-06-26T15:39:22.475Z,100571.95
2019-06-26T15:41:50.135Z,100568.32
2019-06-26T15:44:17.770Z,100569.17
2019-06-26T15:46:45.685Z,100570.13
2019-06-26T15:49:13.420Z,100566.42
2019-06-26T15:51:40.991Z,100566.77
2019-06-26T15:54:08.900Z,100564.53
2019-06-26T15:56:36.499Z,100562.92
2019-06-26T15:59:04.172Z,100562.92
2019-06-26T16:01:32.243Z,100556.85
2019-06-26T16:04:00.280Z,100562.61
2019-06-26T16:06:27.883Z,100557.62
2019-06-26T16:08:55.797Z,100557.30
2019-06-26T16:11:23.435Z,100556.98
2019-06-26T16:13:51.120Z,100550.66
2019-06-26T16:16:18.984Z,100559.78
2019-06-26T16:18:51.185Z,100558.32
2019-06-26T16:21:18.862Z,100559.72
2019-06-26T16:23:46.828Z,100553.60
2019-06-26T16:26:14.441Z,100553.41
2019-06-26T16:28:42.181Z,100553.88
2019-06-26T16:31:10.098Z,100561.44
2019-06-26T16:33:37.849Z,100561.23
2019-06-26T16:36:05.456Z,100566.59
2019-06-26T16:38:33.364Z,100559.22
2019-06-26T16:41:00.929Z,100559.91
2019-06-26T16:43:28.539Z,100564.23
2019-06-26T16:45:56.485Z,100567.92
2019-06-26T16:48:24.105Z,100567.92
2019-06-26T16:50:51.783Z,100571.45
2019-06-26T16:53:19.726Z,100573.33
2019-06-26T16:55:47.337Z,100573.33
2019-06-26T16:58:15.047Z,100579.67
2019-06-26T17:00:44.026Z,100582.11
2019-06-26T17:03:12.055Z,100581.20
2019-06-26T17:05:39.629Z,100581.20
2019-06-26T17:08:07.497Z,100586.80
2019-06-26T17:10:35.116Z,100590.80
2019-06-26T17:13:02.784Z,100593.94
2019-06-26T17:15:30.735Z,100593.94
2019-06-26T17:18:01.157Z,100594.72
2019-06-26T17:20:28.765Z,100592.77
2019-06-26T17:23:05.683Z,100599.81
2019-06-26T17:25:26.022Z,100595.04
2019-06-26T17:27:53.599Z,100596.32
2019-06-26T17:30:21.586Z,100593.80
2019-06-26T17:32:49.185Z,100604.52
2019-06-26T17:35:16.877Z,100611.62
2019-06-26T17:37:45.816Z,100612.88
2019-06-26T17:40:13.433Z,100611.72
2019-06-26T17:42:41.065Z,100614.59
2019-06-26T17:45:08.996Z,100618.09
2019-06-26T17:47:36.606Z,100618.09
2019-06-26T17:50:04.346Z,100626.45
2019-06-26T17:52:35.634Z,100628.50
2019-06-26T17:55:01.566Z,100633.90
2019-06-26T17:57:29.339Z,100637.97
2019-06-26T17:59:57.301Z,100644.27
2019-06-26T18:02:24.866Z,100644.27
2019-06-26T18:04:52.508Z,100642.50
2019-06-26T18:07:20.418Z,100646.55
2019-06-26T18:09:48.383Z,100650.13
2019-06-26T18:12:16.027Z,100653.31
2019-06-26T18:14:43.957Z,100654.84
2019-06-26T18:17:21.494Z,100657.91
2019-06-26T18:19:40.805Z,100663.84
2019-06-26T18:22:08.729Z,100663.19
2019-06-26T18:24:36.312Z,100671.61
2019-06-26T18:27:03.948Z,100669.39
2019-06-26T18:29:31.812Z,100670.52
2019-06-26T18:31:59.470Z,100670.52
2019-06-26T18:34:27.068Z,100677.19
2019-06-26T18:36:54.994Z,100686.86
2019-06-26T18:39:25.402Z,100686.86
2019-06-26T18:41:53.040Z,100683.55
2019-06-26T18:44:20.962Z,100685.19
2019-06-26T18:46:48.958Z,100696.52
2019-06-26T18:49:16.574Z,100696.52
2019-06-26T18:51:44.565Z,100697.89
2019-06-26T18:54:12.204Z,100699.02
2019-06-26T18:56:40.142Z,100699.02
2019-06-26T18:59:07.716Z,100700.00
2019-06-26T19:01:35.377Z,100702.36
2019-06-26T19:04:03.270Z,100703.01
2019-06-26T19:06:30.959Z,100707.63
2019-06-26T19:09:01.588Z,100707.02
2019-06-26T19:11:29.497Z,100718.09
2019-06-26T19:13:57.139Z,100718.09
2019-06-26T19:16:24.872Z,100716.81
2019-06-26T19:18:52.781Z,100717.78
2019-06-26T19:21:20.465Z,100723.37
2019-06-26T19:23:48.060Z,100723.37
2019-06-26T19:26:15.909Z,100720.50
2019-06-26T19:28:43.574Z,100730.35
2019-06-26T19:31:11.239Z,100732.04
2019-06-26T19:33:39.168Z,100740.02
2019-06-26T19:36:06.814Z,100737.80
2019-06-26T19:38:34.384Z,100741.89
2019-06-26T19:41:02.381Z,100743.88
2019-06-26T19:43:30.018Z,100742.39
2019-06-26T19:45:57.647Z,100750.90
2019-06-26T19:48:25.568Z,100756.01
2019-06-26T19:50:53.142Z,100751.61
2019-06-26T19:53:20.864Z,100751.61
2019-06-26T19:55:48.743Z,100768.13
2019-06-26T19:58:16.383Z,100768.13
2019-06-26T20:00:44.378Z,100765.56
2019-06-26T20:03:12.208Z,100762.61
2019-06-26T20:05:40.283Z,100773.01
2019-06-26T20:08:12.418Z,100773.01
2019-06-26T20:10:48.132Z,100771.55
2019-06-26T20:13:11.253Z,100777.06
2019-06-26T20:15:38.869Z,100777.41
2019-06-26T20:18:06.881Z,100779.24
2019-06-26T20:20:34.486Z,100782.90
2019-06-26T20:23:02.363Z,100786.09
2019-06-26T20:25:30.388Z,100786.09
2019-06-26T20:27:58.049Z,100781.09
2019-06-26T20:30:25.708Z,100780.32
2019-06-26T20:32:53.763Z,100776.73
2019-06-26T20:35:21.747Z,100776.73
2019-06-26T20:37:49.402Z,100789.24
2019-06-26T20:40:17.231Z,100788.87
2019-06-26T20:42:44.908Z,100782.22
2019-06-26T20:45:12.491Z,100782.22
2019-06-26T20:47:40.401Z,100784.30
2019-06-26T20:50:08.059Z,100784.30
2019-06-26T20:52:35.660Z,100791.18
2019-06-26T20:55:03.573Z,100786.31
2019-06-26T20:57:31.284Z,100789.58
2019-06-26T20:59:58.953Z,100788.34
2019-06-26T21:02:26.930Z,100793.17
2019-06-26T21:04:54.544Z,100795.47
2019-06-26T21:07:22.333Z,100793.00
2019-06-26T21:09:50.472Z,100791.89
2019-06-26T21:12:18.412Z,100801.84
2019-06-26T21:14:46.314Z,100799.02
2019-06-26T21:17:14.068Z,100801.16
2019-06-26T21:19:41.980Z,100804.64
2019-06-26T21:22:09.699Z,100804.64
2019-06-26T21:24:37.465Z,100812.34
2019-06-26T21:27:05.239Z,100809.86
2019-06-26T21:29:33.419Z,100809.86
2019-06-26T21:32:01.184Z,100815.86
2019-06-26T21:34:28.843Z,100809.44
2019-06-26T21:36:56.511Z,100820.02
2019-06-26T21:39:25.801Z,100818.42
2019-06-26T21:41:53.874Z,100818.42
2019-06-26T21:44:21.626Z,100820.73
2019-06-26T21:46:49.303Z,100820.73
2019-06-26T21:49:17.303Z,100825.05
2019-06-26T21:51:45.034Z,100825.34
2019-06-26T21:54:12.784Z,100825.86
2019-06-26T21:56:40.742Z,100833.53
2019-06-26T21:59:08.383Z,100833.53
2019-06-26T22:01:36.094Z,100839.19
2019-06-26T22:04:03.783Z,100846.38
2019-06-26T22:06:31.718Z,100857.27
2019-06-26T22:08:59.308Z,100855.27
2019-06-26T22:11:26.973Z,100855.27
2019-06-26T22:13:54.694Z,100855.14
2019-06-26T22:16:22.850Z,100855.14
2019-06-26T22:18:50.635Z,100855.70
2019-06-26T22:21:18.334Z,100857.52
2019-06-26T22:23:46.378Z,100857.52
2019-06-26T22:26:14.475Z,100852.95
2019-06-26T22:28:42.293Z,100853.31
2019-06-26T22:31:10.070Z,100859.61
2019-06-26T22:33:38.150Z,100866.44
2019-06-26T22:36:06.021Z,100872.03
2019-06-26T22:38:33.727Z,100869.84
2019-06-26T22:41:01.871Z,100863.08
2019-06-26T22:43:29.895Z,100860.20
2019-06-26T22:45:57.585Z,100869.89
2019-06-26T22:48:25.346Z,100869.89
2019-06-26T22:50:53.421Z,100872.61
2019-06-26T22:53:21.195Z,100872.97
2019-06-26T22:55:48.949Z,100874.00
2019-06-26T22:58:17.040Z,100871.97
2019-06-26T23:00:47.799Z,100877.41
2019-06-26T23:03:15.931Z,100877.41
2019-06-26T23:05:44.212Z,100880.13
2019-06-26T23:08:12.279Z,100874.69
2019-06-26T23:10:40.042Z,100874.69
2019-06-26T23:13:09.749Z,100881.64
2019-06-26T23:15:37.313Z,100883.14
2019-06-26T23:18:05.375Z,100884.16
2019-06-26T23:20:33.082Z,100893.81
2019-06-26T23:23:00.800Z,100893.81
2019-06-26T23:25:29.078Z,100895.13
2019-06-26T23:27:57.050Z,100901.56
2019-06-26T23:30:24.817Z,100901.56
2019-06-26T23:32:52.907Z,100900.34
2019-06-26T23:35:20.649Z,100900.34
2019-06-26T23:37:48.830Z,100905.73
2019-06-26T23:40:16.471Z,100912.75
2019-06-26T23:42:44.106Z,100912.75
2019-06-26T23:45:11.720Z,100919.13
2019-06-26T23:47:39.898Z,100918.59
2019-06-26T23:50:07.536Z,100918.59
2019-06-26T23:52:35.339Z,100924.65
2019-06-26T23:55:03.373Z,100928.52
2019-06-26T23:57:31.040Z,100926.82
2019-06-26T23:59:58.815Z,100926.78
